Time;durP1;ratioP1;P1;durP2;ratioP2;P2;SDS_P1;SDS_P2;PMS_P1;PMS_P2;Temp;Humidity;BMP_temperature;BMP_pressure;BME280_temperature;BME280_humidity;BME280_pressure;Samples;Min_cycle;Max_cycle;Signal;HPM_P1;HPM_P2
2021/07/10 00:01:14;;;;;;;12.40;8.25;;;;;;;22.98;52.60;99692.19;5032436;28;20033;-71
2021/07/10 00:03:39;;;;;;;13.73;7.45;;;;;;;22.94;53.02;99691.41;5014669;28;20026;-70
2021/07/10 00:06:06;;;;;;;8.40;7.30;;;;;;;22.99;53.02;99688.94;5011403;28;20617;-71
2021/07/10 00:08:31;;;;;;;8.02;6.90;;;;;;;22.99;52.75;99682.41;5013018;28;20132;-71
2021/07/10 00:10:57;;;;;;;12.40;7.00;;;;;;;23.05;52.95;99677.91;5032034;28;20053;-71
2021/07/10 00:13:24;;;;;;;9.18;7.72;;;;;;;22.92;53.76;99682.44;5032209;28;20112;-71
2021/07/10 00:15:49;;;;;;;10.85;6.82;;;;;;;22.77;53.68;99676.81;5013485;28;20044;-71
2021/07/10 00:18:15;;;;;;;7.63;6.43;;;;;;;22.92;53.41;99671.84;5032162;28;20017;-71
2021/07/10 00:20:40;;;;;;;7.80;6.30;;;;;;;22.86;53.61;99673.50;5014083;28;20136;-71
2021/07/10 00:23:06;;;;;;;7.93;6.82;;;;;;;22.91;53.57;99664.53;5031221;28;20026;-71
2021/07/10 00:25:31;;;;;;;9.18;7.60;;;;;;;22.98;53.33;99663.69;5027597;28;20033;-71
2021/07/10 00:27:57;;;;;;;9.27;7.28;;;;;;;22.44;54.82;99659.81;5032018;28;20035;-71
2021/07/10 00:30:24;;;;;;;10.00;8.10;;;;;;;22.24;55.58;99656.63;5032074;28;20033;-71
2021/07/10 00:32:50;;;;;;;11.50;7.93;;;;;;;22.20;55.67;99647.25;5029499;28;20047;-71
2021/07/10 00:35:18;;;;;;;11.52;9.68;;;;;;;22.41;55.20;99649.25;5024173;28;20030;-72
2021/07/10 00:37:44;;;;;;;12.05;9.15;;;;;;;21.76;56.67;99648.56;5031319;28;20038;-71
2021/07/10 00:40:11;;;;;;;10.43;8.30;;;;;;;21.79;56.99;99656.28;5013827;28;20033;-71
2021/07/10 00:42:37;;;;;;;8.98;8.07;;;;;;;21.81;57.45;99663.19;5026557;28;20062;-71
2021/07/10 00:45:06;;;;;;;9.02;7.18;;;;;;;21.84;56.22;99675.78;5031465;28;20458;-71
2021/07/10 00:47:32;;;;;;;13.80;7.22;;;;;;;21.77;56.48;99672.94;5013699;28;20025;-70
2021/07/10 00:49:58;;;;;;;10.07;7.43;;;;;;;22.14;56.05;99660.28;5013644;28;20032;-71
2021/07/10 00:52:23;;;;;;;16.05;7.82;;;;;;;22.15;55.90;99654.19;5026428;28;20037;-71
2021/07/10 00:54:49;;;;;;;9.50;7.85;;;;;;;22.18;55.79;99641.16;5031205;28;20028;-72
2021/07/10 00:57:17;;;;;;;12.73;8.10;;;;;;;22.04;56.05;99644.03;5031533;28;20030;-70
2021/07/10 00:59:44;;;;;;;12.35;7.65;;;;;;;22.12;55.53;99643.59;5030198;28;20037;-71
2021/07/10 01:02:10;;;;;;;8.05;7.18;;;;;;;21.89;55.94;99641.22;5004980;28;20048;-71
2021/07/10 01:04:35;;;;;;;9.32;7.60;;;;;;;21.96;56.73;99637.56;5031034;28;20025;-72
2021/07/10 01:07:01;;;;;;;10.70;7.93;;;;;;;21.87;56.67;99643.66;5031615;28;20384;-71
2021/07/10 01:09:26;;;;;;;10.32;7.53;;;;;;;21.86;56.93;99644.91;5025919;28;20034;-71
2021/07/10 01:11:52;;;;;;;12.02;8.05;;;;;;;22.00;56.44;99644.88;5030406;28;20398;-71
2021/07/10 01:14:19;;;;;;;9.30;7.72;;;;;;;22.07;55.87;99638.34;5013161;28;20033;-72
2021/07/10 01:16:45;;;;;;;8.75;7.90;;;;;;;21.95;56.10;99628.19;5030961;28;20425;-71
2021/07/10 01:19:10;;;;;;;9.73;7.47;;;;;;;21.90;56.65;99628.59;5011940;28;20040;-71
2021/07/10 01:21:36;;;;;;;9.45;7.80;;;;;;;22.12;55.66;99625.72;5031108;28;20049;-71
2021/07/10 01:24:02;;;;;;;12.68;8.43;;;;;;;22.05;56.40;99623.72;5013063;28;20414;-71
2021/07/10 01:26:27;;;;;;;10.75;8.27;;;;;;;21.92;56.74;99629.00;5013147;28;20403;-71
2021/07/10 01:28:52;;;;;;;11.70;8.60;;;;;;;21.84;57.15;99625.38;5019572;28;20029;-71
2021/07/10 01:31:19;;;;;;;9.60;8.68;;;;;;;21.79;57.45;99620.09;5030910;28;20034;-71
2021/07/10 01:33:44;;;;;;;16.48;9.35;;;;;;;21.73;57.35;99622.53;5012813;28;20032;-71
2021/07/10 01:36:10;;;;;;;10.73;8.85;;;;;;;21.47;57.94;99620.88;5028511;28;20073;-72
2021/07/10 01:38:35;;;;;;;21.75;8.75;;;;;;;21.53;57.52;99622.09;5008121;28;20091;-72
2021/07/10 01:41:01;;;;;;;9.02;7.90;;;;;;;21.44;56.73;99631.03;5030700;28;20036;-71
2021/07/10 01:43:26;;;;;;;12.88;8.20;;;;;;;21.37;57.13;99628.22;5030648;28;20115;-71
2021/07/10 01:45:52;;;;;;;13.30;8.60;;;;;;;21.48;56.38;99633.06;5025592;28;20065;-71
2021/07/10 01:48:20;;;;;;;13.07;8.73;;;;;;;21.48;56.73;99621.69;5030483;28;20116;-71
2021/07/10 01:50:47;;;;;;;14.35;8.70;;;;;;;21.27;57.11;99623.31;5030328;28;20046;-71
2021/07/10 01:53:15;;;;;;;14.38;8.25;;;;;;;21.21;57.32;99622.91;5012600;28;20033;-71
2021/07/10 01:55:41;;;;;;;12.77;8.13;;;;;;;21.38;57.00;99618.44;5025320;28;20033;-70
2021/07/10 01:58:07;;;;;;;11.50;8.77;;;;;;;21.30;56.87;99628.19;5030399;28;20048;-71
2021/07/10 02:00:40;;;;;;;12.15;8.35;;;;;;;21.35;56.75;99622.09;5029819;28;20479;-70
2021/07/10 02:03:05;;;;;;;14.30;8.38;;;;;;;21.26;56.53;99618.84;5028896;28;20028;-70
2021/07/10 02:05:31;;;;;;;13.98;8.73;;;;;;;21.21;56.57;99620.06;5007478;28;20025;-71
2021/07/10 02:07:59;;;;;;;14.07;8.40;;;;;;;21.34;56.80;99619.66;5012301;28;20029;-71
2021/07/10 02:10:29;;;;;;;11.80;8.68;;;;;;;21.08;57.83;99621.66;5030134;28;20030;-71
2021/07/10 02:12:57;;;;;;;12.35;8.70;;;;;;;20.78;57.72;99626.44;5026006;28;20034;-71
2021/07/10 02:15:24;;;;;;;9.88;8.75;;;;;;;20.97;57.65;99627.31;5029953;28;20064;-71
2021/07/10 02:17:50;;;;;;;9.68;8.27;;;;;;;21.14;56.72;99620.88;5030154;28;20036;-71
2021/07/10 02:20:23;;;;;;;12.88;9.35;;;;;;;21.10;56.94;99631.41;5030299;28;20147;-72
2021/07/10 02:22:50;;;;;;;12.63;8.35;;;;;;;20.96;57.43;99620.84;5026931;28;20418;-71
2021/07/10 02:25:17;;;;;;;10.30;8.18;;;;;;;20.83;57.76;99634.59;5012091;28;20024;-70
2021/07/10 02:27:43;;;;;;;10.30;8.68;;;;;;;20.98;57.24;99629.78;5012207;28;20038;-71
2021/07/10 02:30:15;;;;;;;9.98;8.98;;;;;;;20.75;58.15;99632.91;5029883;28;20410;-71
2021/07/10 02:32:42;;;;;;;13.13;9.35;;;;;;;20.75;58.34;99645.09;5011321;28;20030;-71
2021/07/10 02:35:09;;;;;;;11.75;8.48;;;;;;;20.67;59.17;99648.31;5029973;28;20412;-71
2021/07/10 02:37:36;;;;;;;11.45;9.25;;;;;;;20.65;58.84;99645.88;5029456;28;20065;-70
2021/07/10 02:40:06;;;;;;;12.55;9.02;;;;;;;20.76;58.68;99641.03;5025411;28;20018;-72
2021/07/10 02:42:32;;;;;;;11.82;9.82;;;;;;;20.66;58.73;99641.00;5027898;28;20127;-71
2021/07/10 02:44:58;;;;;;;11.63;9.30;;;;;;;20.66;59.04;99635.34;5029752;28;20490;-72
2021/07/10 02:47:24;;;;;;;9.73;8.23;;;;;;;20.70;58.06;99633.31;5030250;28;20468;-71
2021/07/10 02:49:49;;;;;;;12.00;8.88;;;;;;;20.60;58.70;99632.88;5027478;28;20048;-71
2021/07/10 02:52:15;;;;;;;16.60;8.70;;;;;;;20.60;58.92;99632.88;5030128;28;20032;-71
2021/07/10 02:54:40;;;;;;;13.60;8.63;;;;;;;20.60;58.85;99635.69;5024867;28;20026;-71
2021/07/10 02:57:06;;;;;;;13.00;8.85;;;;;;;20.77;58.77;99633.34;5030102;28;20030;-71
2021/07/10 02:59:31;;;;;;;9.63;7.85;;;;;;;20.76;58.59;99641.03;5018051;28;20018;-72
2021/07/10 03:01:57;;;;;;;15.57;8.43;;;;;;;20.86;58.39;99633.78;5030085;28;20075;-71
2021/07/10 03:04:23;;;;;;;13.25;8.25;;;;;;;20.94;58.52;99628.97;5029601;28;20406;-71
2021/07/10 03:06:49;;;;;;;12.45;9.43;;;;;;;20.85;58.39;99614.31;5011103;28;20292;-72
2021/07/10 03:09:14;;;;;;;15.82;8.52;;;;;;;20.88;58.59;99613.50;5007394;28;20151;-73
2021/07/10 03:11:40;;;;;;;18.38;9.20;;;;;;;20.89;58.78;99609.44;5028389;28;20053;-71
2021/07/10 03:14:06;;;;;;;20.85;9.00;;;;;;;20.71;59.33;99606.50;5007894;28;20564;-71
2021/07/10 03:16:31;;;;;;;16.70;9.82;;;;;;;20.59;59.85;99607.72;5025393;28;20030;-71
2021/07/10 03:18:57;;;;;;;19.95;9.32;;;;;;;20.58;60.25;99600.41;5032975;28;20029;-69
2021/07/10 03:21:22;;;;;;;29.75;10.30;;;;;;;20.47;60.34;99595.50;5033124;28;20069;-70
2021/07/10 03:23:47;;;;;;;20.23;9.55;;;;;;;20.50;59.88;99590.22;5014662;28;20032;-72
2021/07/10 03:26:13;;;;;;;21.20;11.00;;;;;;;20.42;60.47;99580.84;5028858;28;20083;-72
2021/07/10 03:28:40;;;;;;;18.17;9.32;;;;;;;20.39;60.56;99581.63;5032300;28;20459;-73
2021/07/10 03:31:05;;;;;;;23.30;9.02;;;;;;;20.42;60.39;99573.13;5032416;28;20410;-72
2021/07/10 03:33:34;;;;;;;14.00;9.20;;;;;;;20.57;59.71;99578.84;5014762;28;20083;-74
2021/07/10 03:36:01;;;;;;;16.92;9.20;;;;;;;20.69;59.14;99574.84;5011075;28;20042;-71
2021/07/10 03:38:27;;;;;;;129.13;17.02;;;;;;;20.72;59.09;99577.72;5014934;28;20033;-71
2021/07/10 03:40:52;;;;;;;21.98;10.30;;;;;;;20.66;59.23;99578.50;5032628;28;20047;-72
2021/07/10 03:43:17;;;;;;;22.75;9.43;;;;;;;20.82;58.59;99575.34;5031039;28;20044;-72
2021/07/10 03:45:43;;;;;;;16.27;8.25;;;;;;;20.89;59.03;99587.53;5012516;28;20041;-72
2021/07/10 03:48:09;;;;;;;15.63;8.15;;;;;;;21.27;57.16;99584.28;5014927;28;20116;-73
2021/07/10 03:50:34;;;;;;;12.70;9.05;;;;;;;21.18;58.20;99587.56;5032485;28;20430;-74
2021/07/10 03:53:01;;;;;;;15.00;7.97;;;;;;;21.37;56.84;99585.53;5027620;28;20038;-73
2021/07/10 03:55:26;;;;;;;14.48;7.90;;;;;;;21.32;56.82;99592.44;5032437;28;20025;-75
2021/07/10 03:57:51;;;;;;;12.18;8.27;;;;;;;21.38;56.80;99592.84;5014621;28;20083;-75
2021/07/10 04:00:19;;;;;;;16.75;8.38;;;;;;;21.35;57.12;99596.47;5032277;28;20152;-75
2021/07/10 04:02:45;;;;;;;14.10;8.25;;;;;;;21.41;56.79;99588.34;5027390;28;20041;-75
2021/07/10 04:05:11;;;;;;;11.43;8.57;;;;;;;21.73;55.94;99577.00;5014539;28;20017;-73
2021/07/10 04:07:38;;;;;;;17.05;9.05;;;;;;;21.62;56.45;99578.19;5014472;28;20065;-72
2021/07/10 04:10:05;;;;;;;28.30;10.38;;;;;;;21.41;58.10;99582.66;5032089;28;20060;-75
2021/07/10 04:12:31;;;;;;;17.52;9.05;;;;;;;21.31;59.19;99573.75;5010291;28;20038;-73
2021/07/10 04:15:00;;;;;;;12.35;9.45;;;;;;;21.27;59.50;99583.50;5031864;28;20017;-73
2021/07/10 04:17:29;;;;;;;12.10;8.68;;;;;;;21.12;59.40;99574.97;5032499;28;20026;-75
2021/07/10 04:19:55;;;;;;;12.75;8.85;;;;;;;21.21;59.11;99573.72;5029561;28;20030;-73
2021/07/10 04:22:21;;;;;;;14.27;8.80;;;;;;;21.20;59.11;99567.25;5031680;28;20032;-77
2021/07/10 04:24:47;;;;;;;14.65;8.95;;;;;;;21.38;58.23;99570.09;5030909;28;20429;-73
2021/07/10 04:27:12;;;;;;;11.77;9.05;;;;;;;21.49;57.71;99569.28;5031975;28;20060;-77
2021/07/10 04:29:38;;;;;;;16.02;8.07;;;;;;;21.41;57.40;99572.13;5007938;28;20029;-77
2021/07/10 04:32:07;;;;;;;16.75;9.02;;;;;;;21.40;58.02;99570.50;5029886;28;20026;-74
2021/07/10 04:34:32;;;;;;;9.45;8.27;;;;;;;21.50;57.74;99574.53;5031813;28;20033;-76
2021/07/10 04:36:58;;;;;;;17.02;7.97;;;;;;;21.46;57.90;99576.59;5013994;28;20033;-77
2021/07/10 04:39:23;;;;;;;12.45;7.93;;;;;;;21.32;58.28;99577.38;5009225;28;20060;-77
2021/07/10 04:41:49;;;;;;;11.18;8.13;;;;;;;21.52;56.90;99577.00;5031432;28;20419;-77
2021/07/10 04:44:14;;;;;;;10.68;8.15;;;;;;;21.57;57.46;99574.56;5031629;28;20034;-73
2021/07/10 04:46:40;;;;;;;11.02;8.07;;;;;;;21.62;57.35;99570.47;5031669;28;20033;-73
2021/07/10 04:49:05;;;;;;;13.43;8.20;;;;;;;21.46;57.74;99580.22;5028846;28;20049;-72
2021/07/10 04:51:31;;;;;;;12.93;7.85;;;;;;;21.69;56.74;99579.03;5031543;28;20033;-73
2021/07/10 04:53:56;;;;;;;8.88;7.95;;;;;;;21.79;56.12;99583.09;5013560;28;20095;-74
2021/07/10 04:56:22;;;;;;;9.48;8.32;;;;;;;21.73;56.07;99574.16;5028636;28;20457;-73
2021/07/10 04:58:47;;;;;;;9.50;7.95;;;;;;;21.70;56.00;99574.94;5029370;28;20403;-75
2021/07/10 05:01:13;;;;;;;16.38;8.40;;;;;;;21.73;56.63;99582.69;5013376;28;20498;-73
2021/07/10 05:03:40;;;;;;;10.85;8.43;;;;;;;21.88;55.99;99582.66;5031206;28;20026;-73
2021/07/10 05:06:09;;;;;;;14.88;8.48;;;;;;;21.81;55.84;99576.97;5012514;28;20029;-74
2021/07/10 05:08:35;;;;;;;15.75;9.82;;;;;;;21.95;55.92;99578.97;5031116;28;20101;-74
2021/07/10 05:11:00;;;;;;;15.25;9.45;;;;;;;21.85;56.28;99580.63;5030978;28;20168;-74
2021/07/10 05:13:26;;;;;;;19.23;9.43;;;;;;;22.02;56.08;99594.00;5030859;28;20029;-75
2021/07/10 05:15:51;;;;;;;10.10;8.18;;;;;;;22.16;55.06;99586.66;5029295;28;20120;-77
2021/07/10 05:18:19;;;;;;;14.65;7.25;;;;;;;22.35;54.45;99590.25;5031208;28;20057;-70
2021/07/10 05:20:46;;;;;;;8.68;7.68;;;;;;;22.39;54.19;99588.19;5031018;28;20030;-70
2021/07/10 05:23:11;;;;;;;11.82;8.38;;;;;;;22.49;54.34;99595.91;5013204;28;20048;-70
2021/07/10 05:25:37;;;;;;;16.67;9.80;;;;;;;22.62;54.06;99592.59;5011892;28;20418;-70
2021/07/10 05:28:02;;;;;;;17.77;9.35;;;;;;;22.61;53.82;99600.31;5012982;28;20037;-70
2021/07/10 05:30:27;;;;;;;13.65;8.43;;;;;;;22.76;54.27;99605.97;5030538;28;20483;-70
2021/07/10 05:32:53;;;;;;;12.63;9.20;;;;;;;22.74;54.32;99600.69;5028654;28;20400;-70
2021/07/10 05:35:21;;;;;;;19.08;9.10;;;;;;;22.79;54.16;99593.72;5024617;28;20036;-71
2021/07/10 05:37:48;;;;;;;11.93;8.80;;;;;;;22.82;54.40;99592.88;5030358;28;20025;-71
2021/07/10 05:40:14;;;;;;;13.45;8.65;;;;;;;23.16;52.89;99597.13;5029981;28;20083;-70
2021/07/10 05:42:39;;;;;;;10.48;7.72;;;;;;;23.10;53.10;99593.91;5024653;28;20124;-71
2021/07/10 05:45:05;;;;;;;15.50;9.13;;;;;;;23.13;52.61;99598.81;5030275;28;20503;-71
2021/07/10 05:47:31;;;;;;;14.18;7.63;;;;;;;23.23;51.31;99595.06;5012372;28;20086;-73
2021/07/10 05:49:56;;;;;;;10.77;7.72;;;;;;;23.33;51.99;99596.25;5030468;28;20018;-73
2021/07/10 05:52:22;;;;;;;12.88;7.20;;;;;;;23.39;51.97;99588.84;5009585;28;20036;-72
2021/07/10 05:54:47;;;;;;;7.53;6.68;;;;;;;23.54;50.72;99585.88;5030387;28;20469;-72
2021/07/10 05:57:14;;;;;;;12.70;7.30;;;;;;;23.62;50.38;99587.41;5029640;28;20041;-73
2021/07/10 05:59:40;;;;;;;9.07;6.72;;;;;;;23.86;49.41;99581.88;5029629;28;20036;-72
2021/07/10 06:02:06;;;;;;;9.85;6.70;;;;;;;23.90;48.89;99581.84;5007192;28;20426;-73
2021/07/10 06:04:35;;;;;;;11.55;7.07;;;;;;;23.85;49.67;99591.69;5011540;28;20027;-72
2021/07/10 06:07:01;;;;;;;8.57;6.82;;;;;;;23.91;49.17;99577.75;5029476;28;20045;-72
2021/07/10 06:09:27;;;;;;;7.93;6.50;;;;;;;24.19;48.81;99582.38;5024798;28;20061;-71
2021/07/10 06:11:52;;;;;;;11.27;7.32;;;;;;;24.15;48.84;99593.03;5027083;28;20035;-70
2021/07/10 06:14:18;;;;;;;7.28;6.65;;;;;;;24.16;48.86;99585.28;5029225;28;20559;-76
2021/07/10 06:16:44;;;;;;;18.70;6.55;;;;;;;24.22;48.67;99589.28;5010832;28;20124;-76
2021/07/10 06:19:09;;;;;;;11.52;7.20;;;;;;;24.35;47.69;99587.50;5030589;28;20065;-72
2021/07/10 06:21:35;;;;;;;13.80;7.10;;;;;;;24.40;48.00;99589.88;5029520;28;20079;-75
2021/07/10 06:24:01;;;;;;;8.70;7.38;;;;;;;24.47;47.61;99586.09;5012062;28;20029;-72
2021/07/10 06:26:26;;;;;;;9.68;6.93;;;;;;;24.60;46.29;99588.41;5029982;28;20026;-71
2021/07/10 06:28:52;;;;;;;10.25;6.20;;;;;;;24.69;46.22;99588.69;5029309;28;20079;-75
2021/07/10 06:31:19;;;;;;;8.15;6.50;;;;;;;24.73;46.51;99589.44;5011089;28;20033;-75
2021/07/10 06:33:44;;;;;;;11.30;6.50;;;;;;;24.86;45.30;99588.88;5011268;28;20041;-71
2021/07/10 06:36:11;;;;;;;15.68;6.63;;;;;;;24.92;46.00;99590.84;5027829;28;20084;-71
2021/07/10 06:38:36;;;;;;;7.82;6.05;;;;;;;24.93;44.51;99581.03;5006965;28;20034;-71
2021/07/10 06:41:02;;;;;;;10.07;6.38;;;;;;;25.01;45.16;99581.72;5028110;28;20030;-75
2021/07/10 06:43:27;;;;;;;14.52;6.35;;;;;;;25.17;44.07;99586.81;5010521;28;20050;-75
2021/07/10 06:45:53;;;;;;;16.95;6.72;;;;;;;25.11;44.82;99584.88;5029215;28;20041;-71
2021/07/10 06:48:18;;;;;;;21.05;6.55;;;;;;;25.17;44.38;99578.22;5009864;28;20422;-75
2021/07/10 06:50:44;;;;;;;8.38;5.45;;;;;;;25.14;44.78;99576.19;5028687;28;20439;-71
2021/07/10 06:53:10;;;;;;;12.82;6.22;;;;;;;25.22;44.72;99576.91;5033639;28;20033;-75
2021/07/10 06:55:36;;;;;;;9.55;5.53;;;;;;;25.27;44.01;99576.41;5033458;28;20458;-71
2021/07/10 06:58:01;;;;;;;9.50;5.78;;;;;;;25.37;43.61;99572.56;5028649;28;20029;-74
2021/07/10 07:00:27;;;;;;;7.82;5.22;;;;;;;25.56;43.70;99578.00;5015670;28;20021;-70
2021/07/10 07:02:52;;;;;;;10.77;6.07;;;;;;;25.82;41.85;99579.16;5015743;28;20474;-75
2021/07/10 07:05:18;;;;;;;10.50;5.88;;;;;;;25.81;42.18;99573.88;5032501;28;20013;-74
2021/07/10 07:07:43;;;;;;;10.15;4.97;;;;;;;25.97;41.66;99573.19;5011379;28;20025;-74
2021/07/10 07:10:11;;;;;;;9.73;4.90;;;;;;;25.92;43.37;99569.56;5015617;28;20503;-72
2021/07/10 07:12:38;;;;;;;11.40;6.03;;;;;;;25.91;43.00;99564.28;5033461;28;20033;-71
2021/07/10 07:15:06;;;;;;;10.95;5.78;;;;;;;25.97;43.34;99562.50;5031855;28;20087;-71
2021/07/10 07:17:32;;;;;;;11.23;5.55;;;;;;;25.99;43.37;99562.88;5033745;28;20044;-73
2021/07/10 07:19:57;;;;;;;7.68;5.80;;;;;;;26.16;42.46;99565.84;5033448;28;20025;-75
2021/07/10 07:22:25;;;;;;;8.05;5.45;;;;;;;26.37;43.25;99560.91;5015714;28;20118;-71
2021/07/10 07:24:51;;;;;;;12.10;5.47;;;;;;;26.36;43.01;99563.00;5024319;28;20423;-74
2021/07/10 07:27:16;;;;;;;13.70;5.45;;;;;;;26.38;42.39;99569.09;5031295;28;20030;-72
2021/07/10 07:29:42;;;;;;;7.15;5.75;;;;;;;26.39;42.78;99567.84;5033230;28;20021;-71
2021/07/10 07:32:10;;;;;;;11.32;5.85;;;;;;;26.47;42.03;99566.44;5032748;28;20494;-72
2021/07/10 07:34:36;;;;;;;22.40;7.05;;;;;;;26.58;42.26;99562.53;5010104;28;20049;-73
2021/07/10 07:37:01;;;;;;;709.63;478.23;;;;;;;26.67;41.83;99565.63;5032834;28;20185;-70
2021/07/10 07:39:29;;;;;;;280.33;152.73;;;;;;;26.73;42.66;99560.16;5032448;28;20037;-71
2021/07/10 07:41:55;;;;;;;28.58;17.38;;;;;;;26.88;41.96;99560.66;5030629;28;20194;-72
2021/07/10 07:44:20;;;;;;;6.85;6.05;;;;;;;26.89;41.33;99562.25;5031415;28;20022;-70
2021/07/10 07:46:49;;;;;;;13.63;5.38;;;;;;;26.90;41.18;99561.81;5032941;28;20033;-72
2021/07/10 07:49:14;;;;;;;8.43;5.47;;;;;;;26.96;40.10;99562.09;5015020;28;20490;-70
2021/07/10 07:51:40;;;;;;;17.02;6.25;;;;;;;27.10;40.64;99557.28;5011276;28;20072;-69
2021/07/10 07:54:05;;;;;;;14.77;8.57;;;;;;;27.16;41.29;99555.50;5031231;28;20033;-70
2021/07/10 07:56:31;;;;;;;12.75;7.05;;;;;;;27.23;41.26;99563.91;5032643;28;20030;-71
2021/07/10 07:58:56;;;;;;;7.28;6.18;;;;;;;27.38;41.10;99554.94;5031788;28;20029;-73
2021/07/10 08:01:22;;;;;;;11.43;6.10;;;;;;;27.64;40.21;99555.94;5013721;28;20060;-71
2021/07/10 08:03:50;;;;;;;20.83;12.13;;;;;;;27.52;40.53;99556.63;5032243;28;20076;-69
2021/07/10 08:06:15;;;;;;;13.77;7.07;;;;;;;27.57;40.95;99550.38;5014353;28;20033;-72
2021/07/10 08:08:41;;;;;;;8.05;6.13;;;;;;;27.62;40.93;99552.72;5014627;28;20399;-69
2021/07/10 08:11:09;;;;;;;11.50;5.13;;;;;;;27.68;39.26;99542.28;5013423;28;20037;-72
2021/07/10 08:13:35;;;;;;;8.77;5.10;;;;;;;27.64;39.79;99544.44;5032063;28;20122;-69
2021/07/10 08:16:00;;;;;;;7.38;5.32;;;;;;;27.63;39.97;99547.75;5032149;28;20294;-71
2021/07/10 08:18:26;;;;;;;6.28;4.65;;;;;;;27.66;39.58;99539.03;5013168;28;20029;-69
2021/07/10 08:20:52;;;;;;;6.65;5.65;;;;;;;27.81;39.06;99536.59;5031892;28;20089;-69
2021/07/10 08:23:17;;;;;;;12.82;6.97;;;;;;;28.01;39.06;99527.03;5031958;28;20481;-69
2021/07/10 08:25:45;;;;;;;7.70;6.40;;;;;;;28.13;38.88;99536.94;5031888;28;20072;-70
2021/07/10 08:28:10;;;;;;;16.48;5.00;;;;;;;28.26;38.33;99537.00;5009816;28;20030;-69
2021/07/10 08:30:36;;;;;;;6.40;4.55;;;;;;;28.45;37.75;99533.13;5029353;28;20038;-71
2021/07/10 08:33:01;;;;;;;9.82;4.72;;;;;;;28.46;37.80;99525.31;5012133;28;20052;-69
2021/07/10 08:35:27;;;;;;;7.85;4.18;;;;;;;28.55;35.89;99530.38;5029562;28;20028;-70
2021/07/10 08:37:52;;;;;;;10.80;4.57;;;;;;;28.49;35.78;99523.59;5026500;28;20037;-70
2021/07/10 08:40:18;;;;;;;8.23;4.45;;;;;;;28.61;34.23;99517.06;5013899;28;20028;-68
2021/07/10 08:42:44;;;;;;;12.40;5.07;;;;;;;28.71;34.01;99526.59;5031341;28;20042;-68
2021/07/10 08:45:12;;;;;;;8.40;5.57;;;;;;;28.83;36.82;99525.00;5031650;28;20506;-71
2021/07/10 08:47:39;;;;;;;7.18;4.72;;;;;;;29.01;35.25;99521.56;5026405;28;20115;-71
2021/07/10 08:50:08;;;;;;;4.35;3.95;;;;;;;29.19;36.51;99520.94;5031474;28;20026;-69
2021/07/10 08:52:35;;;;;;;18.43;11.97;;;;;;;29.10;36.43;99518.78;5031816;28;20108;-69
2021/07/10 08:55:05;;;;;;;7.65;5.32;;;;;;;29.21;36.50;99508.97;5029321;28;20125;-71
2021/07/10 08:57:34;;;;;;;7.72;5.72;;;;;;;29.31;35.89;99507.00;5009099;28;20033;-71
2021/07/10 09:00:00;;;;;;;9.95;5.07;;;;;;;29.40;35.22;99507.91;5031305;28;20017;-71
2021/07/10 09:02:26;;;;;;;6.65;4.43;;;;;;;29.43;34.85;99506.19;5031642;28;20471;-69
2021/07/10 09:04:51;;;;;;;8.70;5.55;;;;;;;29.47;35.70;99509.78;5026412;28;20025;-71
2021/07/10 09:07:17;;;;;;;6.25;4.43;;;;;;;29.62;34.97;99501.41;5013496;28;20038;-69
2021/07/10 09:09:46;;;;;;;6.38;4.40;;;;;;;29.64;34.71;99503.81;5030044;28;20099;-68
2021/07/10 09:12:13;;;;;;;14.45;4.40;;;;;;;29.62;35.58;99494.84;5031428;28;20037;-71
2021/07/10 09:14:40;;;;;;;8.95;4.63;;;;;;;29.63;35.10;99503.03;5009904;28;20045;-69
2021/07/10 09:17:20;;;;;;;7.13;5.32;;;;;;;29.76;35.58;99494.31;5013077;28;20030;-70
2021/07/10 09:19:47;;;;;;;5.55;4.28;;;;;;;29.90;34.48;99497.94;5013539;28;20495;-69
2021/07/10 09:22:27;;;;;;;6.88;4.72;;;;;;;29.96;34.31;99496.88;5011358;28;20037;-71
2021/07/10 09:24:53;;;;;;;7.28;4.10;;;;;;;29.82;34.66;99495.34;5023367;28;20037;-69
2021/07/10 09:27:19;;;;;;;11.77;5.57;;;;;;;29.87;34.96;99487.38;5031145;28;20061;-71
2021/07/10 09:29:46;;;;;;;7.30;4.65;;;;;;;30.00;35.19;99493.84;5013235;28;20044;-68
2021/07/10 09:32:16;;;;;;;8.35;4.22;;;;;;;30.15;33.08;99490.47;5011061;28;20040;-73
2021/07/10 09:34:51;;;;;;;5.85;4.20;;;;;;;30.08;33.16;99486.59;5030719;28;20032;-73
2021/07/10 09:37:19;;;;;;;10.93;4.93;;;;;;;30.19;33.81;99479.59;5012939;28;20384;-70
2021/07/10 09:39:54;;;;;;;10.35;5.00;;;;;;;30.21;33.91;99479.94;5012723;28;20025;-72
2021/07/10 09:42:35;;;;;;;5.10;4.15;;;;;;;30.38;33.98;99474.75;5028223;28;20046;-69
2021/07/10 09:45:01;;;;;;;10.95;4.28;;;;;;;30.32;34.52;99477.44;5030625;28;20033;-73
2021/07/10 09:47:31;;;;;;;10.43;4.38;;;;;;;30.44;33.33;99472.84;5030789;28;20587;-70
2021/07/10 09:49:58;;;;;;;31.17;6.07;;;;;;;30.53;33.39;99475.00;5025909;28;20045;-69
2021/07/10 09:52:28;;;;;;;18.02;6.03;;;;;;;30.62;33.55;99463.47;5011486;28;20124;-69
2021/07/10 09:54:59;;;;;;;9.73;4.93;;;;;;;30.58;33.61;99471.47;5030239;28;20039;-70
2021/07/10 09:57:27;;;;;;;15.10;5.13;;;;;;;30.54;33.02;99465.84;5030478;28;20033;-69
2021/07/10 09:59:55;;;;;;;10.95;4.70;;;;;;;30.62;32.31;99460.56;5026598;28;20052;-70
2021/07/10 10:02:34;;;;;;;4.93;3.75;;;;;;;30.62;32.23;99466.34;5030588;28;20069;-69
2021/07/10 10:05:04;;;;;;;11.23;5.78;;;;;;;30.79;33.08;99451.72;5003186;28;20075;-72
2021/07/10 10:07:51;;;;;;;10.10;4.82;;;;;;;30.78;33.09;99453.78;5028521;28;20030;-72
2021/07/10 10:10:23;;;;;;;10.20;4.70;;;;;;;30.80;31.85;99456.19;5022331;28;20026;-68
2021/07/10 10:13:13;;;;;;;13.35;4.65;;;;;;;30.90;31.06;99449.19;5012318;28;20029;-70
2021/07/10 10:15:44;;;;;;;13.15;4.07;;;;;;;31.12;31.17;99445.34;5022579;28;20052;-71
2021/07/10 10:18:18;;;;;;;7.15;4.07;;;;;;;30.77;33.49;99449.28;5028544;28;20026;-70
2021/07/10 10:20:45;;;;;;;7.70;5.20;;;;;;;30.92;32.33;99442.91;5029899;28;20391;-73
2021/07/10 10:23:12;;;;;;;7.72;4.45;;;;;;;31.24;30.89;99443.66;5016244;28;20060;-70
2021/07/10 10:25:38;;;;;;;10.25;3.83;;;;;;;31.33;30.51;99448.63;5013979;28;20129;-72
2021/07/10 10:28:06;;;;;;;8.27;4.53;;;;;;;31.36;31.36;99441.88;5030727;28;20032;-73
2021/07/10 10:30:33;;;;;;;8.70;4.00;;;;;;;31.34;30.76;99438.66;5032213;28;20021;-70
2021/07/10 10:32:59;;;;;;;8.30;5.07;;;;;;;31.31;30.12;99436.75;5026579;28;20029;-70
2021/07/10 10:35:24;;;;;;;8.50;4.03;;;;;;;31.29;31.03;99430.66;5033539;28;20032;-68
2021/07/10 10:37:50;;;;;;;14.73;4.10;;;;;;;31.28;31.10;99440.59;5033710;28;20041;-69
2021/07/10 10:40:20;;;;;;;10.63;4.10;;;;;;;31.26;31.01;99435.28;5015851;28;20029;-69
2021/07/10 10:42:52;;;;;;;5.15;4.15;;;;;;;31.37;30.28;99437.69;5033301;28;20526;-70
2021/07/10 10:45:26;;;;;;;5.00;3.97;;;;;;;31.47;30.99;99427.75;5015686;28;20460;-74
2021/07/10 10:47:52;;;;;;;7.78;3.85;;;;;;;31.64;29.21;99424.56;5015715;28;20021;-71
2021/07/10 10:50:23;;;;;;;10.52;4.25;;;;;;;31.79;29.15;99428.41;5031715;28;20104;-70
2021/07/10 10:52:49;;;;;;;30.40;10.57;;;;;;;32.07;28.52;99416.00;5014101;28;20557;-70
2021/07/10 10:55:18;;;;;;;18.52;7.90;;;;;;;32.28;27.58;99411.25;5013562;28;20415;-71
2021/07/10 10:57:49;;;;;;;6.63;4.60;;;;;;;32.32;29.05;99411.88;5013844;28;20465;-70
2021/07/10 11:00:24;;;;;;;8.15;3.75;;;;;;;31.98;28.02;99413.94;5013759;28;20026;-70
2021/07/10 11:02:49;;;;;;;6.95;4.32;;;;;;;32.05;28.90;99404.91;5031174;28;20064;-76
2021/07/10 11:05:29;;;;;;;7.45;4.00;;;;;;;31.82;29.18;99414.28;5031419;28;20109;-73
2021/07/10 11:08:26;;;;;;;4.47;4.07;;;;;;;32.03;29.58;99407.47;5010518;28;20080;-71
2021/07/10 11:10:57;;;;;;;5.25;3.60;;;;;;;32.15;29.03;99404.88;5031767;28;20037;-71
2021/07/10 11:13:29;;;;;;;5.97;3.97;;;;;;;32.11;27.97;99398.47;5006471;28;20147;-71
2021/07/10 11:16:16;;;;;;;8.48;4.18;;;;;;;32.11;27.74;99401.38;5014980;28;20409;-71
2021/07/10 11:19:09;;;;;;;5.85;4.15;;;;;;;32.29;27.54;99395.50;5014986;28;20464;-70
2021/07/10 11:21:35;;;;;;;5.68;3.97;;;;;;;32.23;28.05;99383.00;5015008;28;20073;-73
2021/07/10 11:27:20;;;;;;;5.95;4.45;;;;;;;32.43;28.39;99385.34;5030836;28;20041;-73
2021/07/10 11:29:45;;;;;;;10.25;4.90;;;;;;;32.55;28.64;99389.28;5032241;28;20418;-73